createdAt,value
2019-05-28T00:00:02.509Z,100036.30
2019-05-28T00:02:27.234Z,100032.56
2019-05-28T00:04:55.704Z,100030.39
2019-05-28T00:07:24.166Z,100027.20
2019-05-28T00:09:52.583Z,100023.98
2019-05-28T00:12:21.327Z,100020.46
2019-05-28T00:14:50.013Z,100017.44
2019-05-28T00:17:18.780Z,100013.92
2019-05-28T00:19:47.587Z,100016.84
2019-05-28T00:22:16.077Z,100016.84
2019-05-28T00:24:44.863Z,100016.32
2019-05-28T00:27:13.319Z,100010.88
2019-05-28T00:29:42.033Z,100011.45
2019-05-28T00:32:10.403Z,100013.00
2019-05-28T00:34:38.829Z,100019.25
2019-05-28T00:37:08.089Z,100012.64
2019-05-28T00:39:36.636Z,100015.27
2019-05-28T00:42:05.540Z,100013.66
2019-05-28T00:44:34.055Z,100015.80
2019-05-28T00:47:02.508Z,100006.63
2019-05-28T00:49:30.989Z,99998.02
2019-05-28T00:51:59.449Z,99995.56
2019-05-28T00:54:28.087Z,99996.91
2019-05-28T00:56:56.986Z,100001.41
2019-05-28T00:59:25.544Z,100010.61
2019-05-28T01:01:53.929Z,100009.39
2019-05-28T01:04:22.330Z,100000.95
2019-05-28T01:06:52.386Z,99998.97
2019-05-28T01:09:20.833Z,99999.43
2019-05-28T01:11:49.263Z,99998.08
2019-05-28T01:14:17.830Z,99992.14
2019-05-28T01:16:46.265Z,99993.48
2019-05-28T01:19:14.722Z,99986.61
2019-05-28T01:21:43.119Z,99986.18
2019-05-28T01:24:11.516Z,99985.36
2019-05-28T01:26:39.908Z,99982.63
2019-05-28T01:29:08.380Z,99979.05
2019-05-28T01:31:36.745Z,99982.20
2019-05-28T01:34:05.302Z,99989.00
2019-05-28T01:36:33.690Z,99983.84
2019-05-28T01:39:02.171Z,99985.16
2019-05-28T01:41:30.887Z,99984.03
2019-05-28T01:43:59.292Z,99983.51
2019-05-28T01:46:27.732Z,99984.16
2019-05-28T01:48:56.122Z,99986.48
2019-05-28T01:51:24.929Z,99985.43
2019-05-28T01:53:53.815Z,99983.48
2019-05-28T01:56:22.260Z,99983.78
2019-05-28T01:58:50.730Z,99982.41
2019-05-28T02:01:19.176Z,99977.47
2019-05-28T02:03:48.794Z,99977.55
2019-05-28T02:06:17.249Z,99985.84
2019-05-28T02:08:45.705Z,99983.68
2019-05-28T02:11:14.181Z,99982.93
2019-05-28T02:13:42.672Z,99985.62
2019-05-28T02:16:11.051Z,99983.68
2019-05-28T02:18:39.475Z,99991.53
2019-05-28T02:21:07.836Z,99990.52
2019-05-28T02:23:36.338Z,99993.20
2019-05-28T02:26:05.009Z,99995.30
2019-05-28T02:28:33.481Z,99994.52
2019-05-28T02:31:01.907Z,99987.72
2019-05-28T02:33:30.346Z,99989.59
2019-05-28T02:35:58.730Z,99988.77
2019-05-28T02:38:27.277Z,99991.91
2019-05-28T02:40:55.784Z,99991.64
2019-05-28T02:43:24.269Z,99999.34
2019-05-28T02:45:52.702Z,100000.36
2019-05-28T02:48:21.089Z,99999.28
2019-05-28T02:51:00.039Z,99993.89
2019-05-28T02:53:29.361Z,99991.73
2019-05-28T02:55:58.450Z,99987.65
2019-05-28T02:58:29.635Z,99990.79
2019-05-28T03:00:59.052Z,99990.49
2019-05-28T03:03:32.408Z,99994.23
2019-05-28T03:06:00.989Z,99990.67
2019-05-28T03:08:33.081Z,99989.92
2019-05-28T03:11:04.150Z,99987.09
2019-05-28T03:13:32.538Z,99995.53
2019-05-28T03:16:02.518Z,99992.25
2019-05-28T03:18:31.036Z,99986.05
2019-05-28T03:21:00.727Z,99992.47
2019-05-28T03:23:30.671Z,99995.02
2019-05-28T03:25:59.222Z,99992.02
2019-05-28T03:28:27.680Z,99992.66
2019-05-28T03:30:56.160Z,99993.89
2019-05-28T03:33:24.853Z,99997.11
2019-05-28T03:35:55.024Z,100001.06
2019-05-28T03:38:25.761Z,99996.58
2019-05-28T03:40:54.222Z,99997.14
2019-05-28T03:43:22.643Z,99989.89
2019-05-28T03:45:51.465Z,99991.77
2019-05-28T03:48:19.967Z,99988.63
2019-05-28T03:50:48.452Z,99983.23
2019-05-28T03:53:16.903Z,99993.63
2019-05-28T03:55:45.343Z,99987.42
2019-05-28T03:58:13.856Z,99991.46
2019-05-28T04:00:42.340Z,99992.09
2019-05-28T04:03:10.772Z,99990.92
2019-05-28T04:05:39.248Z,99992.09
2019-05-28T04:08:07.807Z,99994.03
2019-05-28T04:10:36.504Z,99991.72
2019-05-28T04:13:05.515Z,99990.41
2019-05-28T04:15:34.456Z,99992.54
2019-05-28T04:18:02.974Z,99988.55
2019-05-28T04:20:31.377Z,99988.02
2019-05-28T04:22:59.817Z,99984.88
2019-05-28T04:25:28.304Z,99991.95
2019-05-28T04:27:56.997Z,99990.16
2019-05-28T04:30:25.468Z,99995.05
2019-05-28T04:32:53.914Z,99996.40
2019-05-28T04:35:22.370Z,99993.48
2019-05-28T04:37:50.891Z,99996.77
2019-05-28T04:40:19.359Z,99994.49
2019-05-28T04:42:47.801Z,99999.42
2019-05-28T04:45:17.456Z,99995.95
2019-05-28T04:47:46.289Z,100000.28
2019-05-28T04:50:18.351Z,100000.58
2019-05-28T04:52:46.909Z,99998.83
2019-05-28T04:55:15.461Z,100007.02
2019-05-28T04:57:43.907Z,99997.73
2019-05-28T05:00:12.437Z,99995.67
2019-05-28T05:02:57.686Z,99996.42
2019-05-28T05:05:11.243Z,99990.36
2019-05-28T05:07:39.714Z,99994.91
2019-05-28T05:10:08.455Z,99999.55
2019-05-28T05:12:36.999Z,99994.56
2019-05-28T05:15:06.643Z,99993.28
2019-05-28T05:17:35.064Z,99988.55
2019-05-28T05:20:05.462Z,99989.97
2019-05-28T05:22:33.860Z,99990.00
2019-05-28T05:25:02.346Z,99993.19
2019-05-28T05:27:31.017Z,99987.93
2019-05-28T05:29:59.440Z,99985.66
2019-05-28T05:32:28.287Z,99983.09
2019-05-28T05:34:56.726Z,99993.11
2019-05-28T05:37:25.263Z,99995.25
2019-05-28T05:39:53.649Z,99997.83
2019-05-28T05:42:22.534Z,100000.91
2019-05-28T05:44:51.025Z,100004.84
2019-05-28T05:47:19.806Z,100005.23
2019-05-28T05:49:48.352Z,100008.05
2019-05-28T05:52:16.828Z,100009.53
2019-05-28T05:54:45.242Z,100007.66
2019-05-28T05:57:13.750Z,100010.15
2019-05-28T05:59:42.159Z,100001.30
2019-05-28T06:02:10.529Z,100011.06
2019-05-28T06:04:45.585Z,100008.78
2019-05-28T06:07:14.069Z,100007.95
2019-05-28T06:09:42.488Z,100013.90
2019-05-28T06:12:10.873Z,100016.42
2019-05-28T06:14:40.140Z,100018.16
2019-05-28T06:17:08.519Z,100022.97
2019-05-28T06:19:36.944Z,100020.64
2019-05-28T06:22:05.572Z,100017.03
2019-05-28T06:24:33.982Z,100023.47
2019-05-28T06:27:02.430Z,100018.28
2019-05-28T06:29:30.892Z,100008.53
2019-05-28T06:31:59.280Z,100008.30
2019-05-28T06:34:27.742Z,100005.31
2019-05-28T06:36:56.625Z,100010.47
2019-05-28T06:39:25.088Z,100015.03
2019-05-28T06:41:53.452Z,100003.27
2019-05-28T06:44:21.943Z,100007.37
2019-05-28T06:46:50.537Z,100004.25
2019-05-28T06:49:19.011Z,100004.41
2019-05-28T06:51:47.469Z,100004.30
2019-05-28T06:54:15.870Z,100009.66
2019-05-28T06:56:44.577Z,100010.75
2019-05-28T06:59:13.778Z,100017.91
2019-05-28T07:01:42.563Z,100018.44
2019-05-28T07:04:15.904Z,100023.59
2019-05-28T07:06:41.463Z,100023.06
2019-05-28T07:09:10.161Z,100024.33
2019-05-28T07:11:38.624Z,100027.37
2019-05-28T07:14:07.411Z,100028.23
2019-05-28T07:16:49.993Z,100034.27
2019-05-28T07:19:23.066Z,100033.46
2019-05-28T07:21:36.564Z,100035.46
2019-05-28T07:24:05.362Z,100040.34
2019-05-28T07:26:33.836Z,100034.39
2019-05-28T07:29:02.218Z,100039.45
2019-05-28T07:31:30.671Z,100032.47
2019-05-28T07:33:59.136Z,100044.44
2019-05-28T07:36:27.519Z,100040.66
2019-05-28T07:38:55.982Z,100047.76
2019-05-28T07:41:24.445Z,100041.09
2019-05-28T07:43:52.918Z,100041.19
2019-05-28T07:46:21.321Z,100046.70
2019-05-28T07:48:49.829Z,100047.28
2019-05-28T07:51:18.327Z,100049.98
2019-05-28T07:53:47.052Z,100051.29
2019-05-28T07:56:15.535Z,100054.05
2019-05-28T07:58:43.913Z,100047.48
2019-05-28T08:01:12.365Z,100043.76
2019-05-28T08:03:40.850Z,100044.30
2019-05-28T08:06:09.332Z,100043.84
2019-05-28T08:08:37.774Z,100052.50
2019-05-28T08:11:06.169Z,100046.47
2019-05-28T08:13:40.706Z,100052.54
2019-05-28T08:16:23.880Z,100045.70
2019-05-28T08:18:35.358Z,100052.38
2019-05-28T08:21:03.846Z,100056.84
2019-05-28T08:23:32.627Z,100047.65
2019-05-28T08:26:01.897Z,100049.26
2019-05-28T08:28:30.646Z,100042.65
2019-05-28T08:31:14.118Z,100044.89
2019-05-28T08:33:29.314Z,100050.97
2019-05-28T08:35:57.769Z,100049.60
2019-05-28T08:38:26.373Z,100053.56
2019-05-28T08:40:54.791Z,100050.47
2019-05-28T08:43:23.339Z,100051.67
2019-05-28T08:45:51.834Z,100064.62
2019-05-28T08:48:20.318Z,100057.84
2019-05-28T08:50:48.932Z,100063.47
2019-05-28T08:53:17.788Z,100070.72
2019-05-28T08:55:46.474Z,100073.32
2019-05-28T08:58:14.992Z,100069.23
2019-05-28T09:00:44.467Z,100077.64
2019-05-28T09:03:13.216Z,100072.88
2019-05-28T09:05:41.800Z,100066.84
2019-05-28T09:08:10.440Z,100075.46
2019-05-28T09:10:38.876Z,100066.89
2019-05-28T09:13:07.402Z,100068.09
2019-05-28T09:15:35.949Z,100076.29
2019-05-28T09:18:04.776Z,100079.45
2019-05-28T09:20:33.314Z,100083.80
2019-05-28T09:23:01.812Z,100083.52
2019-05-28T09:25:30.293Z,100084.45
2019-05-28T09:27:58.803Z,100087.73
2019-05-28T09:30:27.348Z,100089.00
2019-05-28T09:32:55.787Z,100084.21
2019-05-28T09:35:24.247Z,100092.13
2019-05-28T09:37:52.693Z,100089.91
2019-05-28T09:40:22.712Z,100086.50
2019-05-28T09:42:51.426Z,100084.33
2019-05-28T09:45:22.856Z,100088.17
2019-05-28T09:47:50.150Z,100083.44
2019-05-28T09:50:30.026Z,100086.67
2019-05-28T09:52:54.996Z,100083.61
2019-05-28T09:55:20.045Z,100084.97
2019-05-28T09:57:48.481Z,100085.47
2019-05-28T10:00:21.036Z,100091.16
2019-05-28T10:02:50.608Z,100087.81
2019-05-28T10:05:19.727Z,100085.64
2019-05-28T10:07:48.745Z,100088.10
2019-05-28T10:10:17.447Z,100085.92
2019-05-28T10:12:46.495Z,100087.51
2019-05-28T10:15:19.024Z,100087.82
2019-05-28T10:17:47.547Z,100085.81
2019-05-28T10:20:16.825Z,100085.13
2019-05-28T10:22:45.274Z,100083.57
2019-05-28T10:25:13.980Z,100088.83
2019-05-28T10:27:59.243Z,100088.27
2019-05-28T10:30:14.898Z,100088.86
2019-05-28T10:32:43.300Z,100088.13
2019-05-28T10:35:12.601Z,100091.91
2019-05-28T10:37:41.487Z,100091.79
2019-05-28T10:40:10.701Z,100091.34
2019-05-28T10:42:39.137Z,100089.81
2019-05-28T10:45:11.405Z,100086.59
2019-05-28T10:47:39.935Z,100087.90
2019-05-28T10:50:10.022Z,100087.23
2019-05-28T10:52:38.841Z,100093.20
2019-05-28T10:55:08.471Z,100085.88
2019-05-28T10:57:37.141Z,100090.48
2019-05-28T11:00:07.157Z,100100.55
2019-05-28T11:02:35.609Z,100088.30
2019-05-28T11:05:05.742Z,100096.18
2019-05-28T11:07:34.193Z,100098.28
2019-05-28T11:10:02.924Z,100093.50
2019-05-28T11:12:31.491Z,100086.14
2019-05-28T11:14:59.889Z,100095.88
2019-05-28T11:17:28.316Z,100094.84
2019-05-28T11:19:57.161Z,100090.75
2019-05-28T11:22:25.846Z,100096.40
2019-05-28T11:24:54.261Z,100095.91
2019-05-28T11:27:24.130Z,100083.62
2019-05-28T11:29:52.817Z,100085.33
2019-05-28T11:32:21.285Z,100079.40
2019-05-28T11:34:49.940Z,100084.25
2019-05-28T11:37:18.455Z,100079.84
2019-05-28T11:39:46.934Z,100086.98
2019-05-28T11:42:15.308Z,100085.25
2019-05-28T11:44:43.750Z,100088.75
2019-05-28T11:47:12.281Z,100090.34
2019-05-28T11:49:40.671Z,100087.84
2019-05-28T11:52:09.141Z,100093.52
2019-05-28T11:54:37.966Z,100096.83
2019-05-28T11:57:06.408Z,100101.08
2019-05-28T11:59:35.135Z,100095.38
2019-05-28T12:02:05.300Z,100096.58
2019-05-28T12:04:33.845Z,100101.61
2019-05-28T12:07:02.298Z,100104.28
2019-05-28T12:09:31.005Z,100102.11
2019-05-28T12:11:59.541Z,100100.83
2019-05-28T12:14:28.014Z,100105.86
2019-05-28T12:16:56.522Z,100108.59
2019-05-28T12:19:24.991Z,100105.99
2019-05-28T12:21:53.441Z,100098.37
2019-05-28T12:24:22.067Z,100101.37
2019-05-28T12:26:50.560Z,100106.53
2019-05-28T12:29:19.061Z,100111.81
2019-05-28T12:31:47.599Z,100112.66
2019-05-28T12:34:16.071Z,100109.19
2019-05-28T12:36:44.662Z,100112.38
2019-05-28T12:39:13.116Z,100109.48
2019-05-28T12:41:41.495Z,100111.47
2019-05-28T12:44:10.369Z,100108.38
2019-05-28T12:46:38.961Z,100107.08
2019-05-28T12:49:07.642Z,100107.05
2019-05-28T12:51:36.449Z,100113.70
2019-05-28T12:54:05.440Z,100112.02
2019-05-28T12:56:33.982Z,100112.81
2019-05-28T12:59:02.445Z,100117.09
2019-05-28T13:01:31.106Z,100111.92
2019-05-28T13:03:59.506Z,100116.77
2019-05-28T13:06:28.364Z,100113.69
2019-05-28T13:08:57.149Z,100117.79
2019-05-28T13:11:25.633Z,100117.80
2019-05-28T13:13:54.011Z,100123.92
2019-05-28T13:16:22.546Z,100123.68
2019-05-28T13:18:51.009Z,100115.20
2019-05-28T13:21:19.553Z,100126.64
2019-05-28T13:23:48.113Z,100122.49
2019-05-28T13:26:16.601Z,100124.77
2019-05-28T13:28:45.309Z,100126.92
2019-05-28T13:31:13.785Z,100126.59
2019-05-28T13:33:42.582Z,100118.34
2019-05-28T13:36:11.057Z,100113.77
2019-05-28T13:38:42.726Z,100118.77
2019-05-28T13:41:09.798Z,100125.29
2019-05-28T13:43:38.173Z,100113.61
2019-05-28T13:46:06.642Z,100125.02
2019-05-28T13:48:35.075Z,100123.02
2019-05-28T13:51:03.533Z,100126.28
2019-05-28T13:53:31.974Z,100120.17
2019-05-28T13:56:00.687Z,100122.12
2019-05-28T13:58:29.127Z,100131.39
2019-05-28T14:00:57.559Z,100125.63
2019-05-28T14:03:26.358Z,100129.66
2019-05-28T14:05:54.994Z,100128.64
2019-05-28T14:08:23.413Z,100127.98
2019-05-28T14:10:55.954Z,100127.75
2019-05-28T14:13:24.336Z,100128.14
2019-05-28T14:15:52.799Z,100126.38
2019-05-28T14:18:21.325Z,100132.00
2019-05-28T14:20:49.785Z,100132.80
2019-05-28T14:23:18.248Z,100127.59
2019-05-28T14:25:46.792Z,100132.49
2019-05-28T14:28:15.246Z,100134.01
2019-05-28T14:30:58.794Z,100129.94
2019-05-28T14:33:13.815Z,100128.51
2019-05-28T14:35:42.426Z,100128.08
2019-05-28T14:38:10.930Z,100126.67
2019-05-28T14:40:39.569Z,100128.38
2019-05-28T14:43:08.101Z,100133.09
2019-05-28T14:45:36.969Z,100131.83
2019-05-28T14:48:05.524Z,100133.42
2019-05-28T14:50:34.118Z,100138.86
2019-05-28T14:53:02.625Z,100137.19
2019-05-28T14:55:31.310Z,100140.45
2019-05-28T14:57:59.730Z,100141.59
2019-05-28T15:00:28.174Z,100142.95
2019-05-28T15:02:56.637Z,100148.63
2019-05-28T15:05:25.013Z,100147.01
2019-05-28T15:07:53.705Z,100154.36
2019-05-28T15:10:23.028Z,100151.36
2019-05-28T15:12:51.589Z,100154.63
2019-05-28T15:15:34.472Z,100157.34
2019-05-28T15:17:50.925Z,100161.64
2019-05-28T15:20:19.942Z,100166.42
2019-05-28T15:22:48.535Z,100166.64
2019-05-28T15:25:17.109Z,100166.34
2019-05-28T15:27:45.624Z,100175.77
2019-05-28T15:30:15.755Z,100174.88
2019-05-28T15:32:44.233Z,100176.61
2019-05-28T15:35:13.552Z,100171.67
2019-05-28T15:37:42.117Z,100176.31
2019-05-28T15:40:12.658Z,100173.26
2019-05-28T15:42:42.848Z,100182.50
2019-05-28T15:45:12.029Z,100182.30
2019-05-28T15:47:44.440Z,100189.87
2019-05-28T15:50:11.605Z,100184.36
2019-05-28T15:52:40.551Z,100192.72
2019-05-28T15:55:09.573Z,100197.02
2019-05-28T15:57:38.316Z,100198.08
2019-05-28T16:00:12.078Z,100201.33
2019-05-28T16:02:40.683Z,100202.37
2019-05-28T16:05:09.083Z,100202.90
2019-05-28T16:07:37.650Z,100203.47
2019-05-28T16:10:08.320Z,100211.06
2019-05-28T16:12:36.869Z,100213.00
2019-05-28T16:15:07.182Z,100215.73
2019-05-28T16:17:36.002Z,100215.39
2019-05-28T16:20:06.505Z,100226.73
2019-05-28T16:22:35.040Z,100230.19
2019-05-28T16:25:05.536Z,100223.37
2019-05-28T16:27:34.046Z,100225.20
2019-05-28T16:30:03.152Z,100234.92
2019-05-28T16:32:31.606Z,100233.28
2019-05-28T16:35:00.505Z,100239.03
2019-05-28T16:37:29.314Z,100235.82
2019-05-28T16:40:13.592Z,100238.11
2019-05-28T16:42:28.463Z,100239.64
2019-05-28T16:44:56.967Z,100243.25
2019-05-28T16:47:25.538Z,100253.77
2019-05-28T16:49:53.940Z,100259.44
2019-05-28T16:52:22.853Z,100262.93
2019-05-28T16:54:51.649Z,100259.20
2019-05-28T16:57:20.438Z,100268.27
2019-05-28T16:59:49.216Z,100268.42
2019-05-28T17:02:17.655Z,100282.16
2019-05-28T17:04:46.070Z,100279.64
2019-05-28T17:07:14.597Z,100282.45
2019-05-28T17:09:43.074Z,100285.92
2019-05-28T17:12:11.546Z,100297.67
2019-05-28T17:14:40.312Z,100296.52
2019-05-28T17:17:08.775Z,100302.77
2019-05-28T17:19:37.276Z,100309.19
2019-05-28T17:22:05.707Z,100308.99
2019-05-28T17:24:34.192Z,100311.95
2019-05-28T17:27:02.582Z,100318.61
2019-05-28T17:29:31.098Z,100320.10
2019-05-28T17:31:59.898Z,100331.11
2019-05-28T17:34:28.504Z,100327.42
2019-05-28T17:36:57.377Z,100340.92
2019-05-28T17:39:26.163Z,100349.27
2019-05-28T17:41:54.703Z,100341.63
2019-05-28T17:44:23.202Z,100348.44
2019-05-28T17:46:51.600Z,100346.34
2019-05-28T17:49:20.011Z,100359.59
2019-05-28T17:51:48.496Z,100358.07
2019-05-28T17:54:17.039Z,100368.21
2019-05-28T17:56:45.522Z,100370.23
2019-05-28T17:59:14.341Z,100374.66
2019-05-28T18:01:46.334Z,100379.02
2019-05-28T18:04:13.184Z,100379.38
2019-05-28T18:06:41.684Z,100385.61
2019-05-28T18:09:10.094Z,100385.98
2019-05-28T18:11:38.513Z,100396.98
2019-05-28T18:14:06.967Z,100395.02
2019-05-28T18:16:35.327Z,100398.61
2019-05-28T18:19:03.916Z,100401.41
2019-05-28T18:21:32.415Z,100399.83
2019-05-28T18:24:00.817Z,100407.59
2019-05-28T18:26:29.256Z,100407.53
2019-05-28T18:28:57.726Z,100407.42
2019-05-28T18:31:26.311Z,100410.52
2019-05-28T18:33:54.774Z,100419.75
2019-05-28T18:36:23.374Z,100419.58
2019-05-28T18:38:51.779Z,100426.66
2019-05-28T18:41:21.953Z,100435.55
2019-05-28T18:43:51.103Z,100433.95
2019-05-28T18:46:19.555Z,100436.25
2019-05-28T18:48:48.021Z,100443.83
2019-05-28T18:51:16.526Z,100449.64
2019-05-28T18:53:45.003Z,100448.74
2019-05-28T18:56:17.548Z,100457.18
2019-05-28T18:58:43.736Z,100463.86
2019-05-28T19:01:12.208Z,100467.27
2019-05-28T19:03:40.591Z,100477.69
2019-05-28T19:06:09.071Z,100480.48
2019-05-28T19:08:37.877Z,100484.94
2019-05-28T19:11:06.458Z,100489.91
2019-05-28T19:13:34.905Z,100488.42
2019-05-28T19:16:03.427Z,100498.80
2019-05-28T19:18:31.886Z,100504.27
2019-05-28T19:21:00.352Z,100510.41
2019-05-28T19:23:28.886Z,100511.84
2019-05-28T19:25:57.665Z,100508.94
2019-05-28T19:28:26.198Z,100522.20
2019-05-28T19:30:54.666Z,100526.52
2019-05-28T19:33:23.247Z,100531.55
2019-05-28T19:35:51.718Z,100536.13
2019-05-28T19:38:20.407Z,100534.03
2019-05-28T19:40:48.849Z,100538.08
2019-05-28T19:43:17.313Z,100545.11
2019-05-28T19:45:46.640Z,100544.36
2019-05-28T19:48:15.119Z,100548.09
2019-05-28T19:50:43.705Z,100558.25
2019-05-28T19:53:12.057Z,100555.44
2019-05-28T19:55:40.655Z,100559.31
2019-05-28T19:58:09.190Z,100563.05
2019-05-28T20:00:37.698Z,100562.02
2019-05-28T20:03:06.211Z,100573.55
2019-05-28T20:05:34.753Z,100578.39
2019-05-28T20:08:08.372Z,100576.68
2019-05-28T20:10:38.492Z,100580.54
2019-05-28T20:13:09.764Z,100589.23
2019-05-28T20:15:38.635Z,100599.21
2019-05-28T20:18:07.167Z,100602.58
2019-05-28T20:20:35.705Z,100608.18
2019-05-28T20:23:04.232Z,100615.48
2019-05-28T20:25:33.427Z,100622.74
2019-05-28T20:28:01.802Z,100621.77
2019-05-28T20:30:30.277Z,100630.30
2019-05-28T20:32:59.143Z,100628.25
2019-05-28T20:35:30.975Z,100635.64
2019-05-28T20:37:58.041Z,100646.84
2019-05-28T20:40:26.495Z,100652.02
2019-05-28T20:42:54.882Z,100655.22
2019-05-28T20:45:23.535Z,100654.33
2019-05-28T20:47:51.995Z,100656.83
2019-05-28T20:50:20.708Z,100663.03
2019-05-28T20:52:49.237Z,100673.17
2019-05-28T20:55:18.027Z,100667.17
2019-05-28T20:57:47.107Z,100677.26
2019-05-28T21:00:15.736Z,100667.88
2019-05-28T21:02:44.187Z,100669.50
2019-05-28T21:05:12.744Z,100674.89
2019-05-28T21:07:41.191Z,100676.80
2019-05-28T21:10:10.076Z,100685.01
2019-05-28T21:12:44.358Z,100693.25
2019-05-28T21:15:09.194Z,100695.30
2019-05-28T21:17:37.653Z,100700.47
2019-05-28T21:20:09.011Z,100696.70
2019-05-28T21:22:37.388Z,100702.60
2019-05-28T21:25:06.618Z,100701.70
2019-05-28T21:27:35.149Z,100702.63
2019-05-28T21:30:05.537Z,100711.97
2019-05-28T21:32:33.934Z,100714.45
2019-05-28T21:35:02.804Z,100715.41
2019-05-28T21:37:31.283Z,100718.71
2019-05-28T21:39:59.737Z,100722.23
2019-05-28T21:42:28.461Z,100732.16
2019-05-28T21:44:58.041Z,100730.22
2019-05-28T21:47:26.590Z,100742.20
2019-05-28T21:49:55.001Z,100736.43
2019-05-28T21:52:23.406Z,100747.39
2019-05-28T21:54:52.921Z,100747.69
2019-05-28T21:57:21.451Z,100745.83
2019-05-28T21:59:50.461Z,100747.77
2019-05-28T22:02:19.070Z,100750.58
2019-05-28T22:04:47.552Z,100743.44
2019-05-28T22:07:15.978Z,100747.58
2019-05-28T22:09:44.433Z,100744.70
2019-05-28T22:12:13.132Z,100749.86
2019-05-28T22:14:41.578Z,100750.36
2019-05-28T22:17:12.724Z,100749.64
2019-05-28T22:19:40.343Z,100759.17
2019-05-28T22:22:09.096Z,100769.11
2019-05-28T22:24:37.637Z,100772.84
2019-05-28T22:27:06.072Z,100780.70
2019-05-28T22:29:34.538Z,100780.67
2019-05-28T22:32:03.002Z,100789.37
2019-05-28T22:34:31.541Z,100788.34
2019-05-28T22:37:00.275Z,100790.91
2019-05-28T22:39:29.714Z,100798.66
2019-05-28T22:41:59.518Z,100801.16
2019-05-28T22:44:28.118Z,100801.35
2019-05-28T22:46:57.068Z,100810.98
2019-05-28T22:49:25.666Z,100806.95
2019-05-28T22:51:54.042Z,100814.27
2019-05-28T22:54:22.746Z,100813.96
2019-05-28T22:56:51.114Z,100809.41
2019-05-28T22:59:19.559Z,100806.13
2019-05-28T23:01:48.007Z,100810.56
2019-05-28T23:04:16.449Z,100811.27
2019-05-28T23:06:44.914Z,100816.33
2019-05-28T23:09:13.411Z,100821.93
2019-05-28T23:11:41.874Z,100818.29
2019-05-28T23:14:10.389Z,100829.67
2019-05-28T23:16:38.884Z,100829.67
2019-05-28T23:19:08.639Z,100831.72
2019-05-28T23:21:37.204Z,100844.64
2019-05-28T23:24:05.632Z,100840.92
2019-05-28T23:26:34.116Z,100844.00
2019-05-28T23:29:03.629Z,100855.45
2019-05-28T23:31:32.178Z,100853.19
2019-05-28T23:34:00.625Z,100853.38
2019-05-28T23:36:29.051Z,100861.95
2019-05-28T23:38:57.784Z,100863.30
2019-05-28T23:41:26.336Z,100858.94
2019-05-28T23:44:02.030Z,100867.61
2019-05-28T23:46:24.895Z,100872.73
2019-05-28T23:48:53.370Z,100874.08
2019-05-28T23:51:21.796Z,100870.05
2019-05-28T23:53:50.228Z,100880.08
2019-05-28T23:56:18.792Z,100874.59
2019-05-28T23:58:47.316Z,100874.17
